Portada
METAR-TAF:

METAR-TAF

Aeroports :

Farmingdale, Nova York, Estats Units d'Amèrica

latitud: 40-44-03N, longitud: 073-25-01W, altitud: 24 m

Observació

L'informe es va fer fa 1 hora i 3 minuts, a les 22:53 UTC
Vent 6 kt del Nord/Nord-Oest
Temperatura 10°C
Humitat 93%
Pressió 1004 hPa
Visibilitat: 6.4 km
Cel ennuvolat a una alçada de 600 ft
Cel cobert a una alçada de 1100 ft
pluja, boirina

METAR: KFRG 152253Z 34006KT 4SM RA BR BKN006 OVC011 10/09 A2965 RMK AO2 SLP040 P0010 T01000089

Hora: 19:56 (23:56 UTC)


TAF: manca

Observacions i pronòstics meteorològics de més de 4000 aeroports (METAR i TAF).

Les estacions disponibles són els punts grocs i vermells al mapa.

Posi el ratolí al punt desitjat per veure el nom de l'estació.

Feu clic per veure les observacions i els pronòstics meteorològics.

Per canviar el mapa: feu clic els botons verds amb una creu de color negre per apropar; al botó verd amb un guió per allunyar la imatge; o en les fletxes verdes per a mapes adjacents.


METAR-TAF: